Koslan, Russia
Current Conditions -  °F | °C
As of 8:00 PM on Sunday 23 Nov 2014 (Local Time) from UUYY Reporting Station
Overcast Overcast  
Wind Chill: -8°   Ceiling: 20000
Heat Index: -8°   Visibility: 4mi
Dew Point: -11°   Wind: 0mph
Humidity: 84%   Direction: NA
Pressure: 30.74"   Gusts: NA
Location:  63.45°N, 48.9°E
Report Text: UUYY 231700Z 00000MPS 6000 FEW066 OVC200 M22/M24 Q1041 TEMPO 2000 BR FU 0181//51 RMK QFE771/1028
Loading
Personal Weather Stations






























Interactive Weather Map New forecast layout! Learn more

10-Day Weather Forecast

Advertisements
Track Severe Weather on mobile